sensor_id;sensor_type;location;lat;lon;timestamp;P1;durP1;ratioP1;P2;durP2;ratioP2
63434;SDS011;68814;50.872;5.306;2023-06-10T00:00:42;8.32;;;6.68;;
63434;SDS011;68814;50.872;5.306;2023-06-10T00:03:09;10.45;;;7.43;;
63434;SDS011;68814;50.872;5.306;2023-06-10T00:05:35;8.40;;;7.43;;
63434;SDS011;68814;50.872;5.306;2023-06-10T00:08:01;11.95;;;6.78;;
63434;SDS011;68814;50.872;5.306;2023-06-10T00:10:32;8.00;;;6.88;;
63434;SDS011;68814;50.872;5.306;2023-06-10T00:13:00;9.35;;;7.47;;
63434;SDS011;68814;50.872;5.306;2023-06-10T00:15:26;8.25;;;6.95;;
63434;SDS011;68814;50.872;5.306;2023-06-10T00:17:51;11.88;;;7.97;;
63434;SDS011;68814;50.872;5.306;2023-06-10T00:20:20;13.20;;;7.70;;
63434;SDS011;68814;50.872;5.306;2023-06-10T00:22:46;12.00;;;7.25;;
63434;SDS011;68814;50.872;5.306;2023-06-10T00:25:13;11.07;;;7.30;;
63434;SDS011;68814;50.872;5.306;2023-06-10T00:27:39;9.57;;;8.18;;
63434;SDS011;68814;50.872;5.306;2023-06-10T00:30:05;8.57;;;7.65;;
63434;SDS011;68814;50.872;5.306;2023-06-10T00:32:35;10.45;;;8.25;;
63434;SDS011;68814;50.872;5.306;2023-06-10T00:35:01;12.02;;;8.75;;
63434;SDS011;68814;50.872;5.306;2023-06-10T00:37:31;8.50;;;7.55;;
63434;SDS011;68814;50.872;5.306;2023-06-10T00:39:57;9.98;;;7.38;;
63434;SDS011;68814;50.872;5.306;2023-06-10T00:42:23;8.98;;;7.50;;
63434;SDS011;68814;50.872;5.306;2023-06-10T00:44:50;11.45;;;8.38;;
63434;SDS011;68814;50.872;5.306;2023-06-10T00:47:16;11.00;;;7.78;;
63434;SDS011;68814;50.872;5.306;2023-06-10T00:49:42;9.27;;;7.80;;
63434;SDS011;68814;50.872;5.306;2023-06-10T00:52:08;9.23;;;8.05;;
63434;SDS011;68814;50.872;5.306;2023-06-10T00:54:35;12.30;;;8.15;;
63434;SDS011;68814;50.872;5.306;2023-06-10T00:57:02;10.35;;;8.20;;
63434;SDS011;68814;50.872;5.306;2023-06-10T00:59:29;9.88;;;8.45;;
63434;SDS011;68814;50.872;5.306;2023-06-10T01:01:56;12.02;;;8.25;;
63434;SDS011;68814;50.872;5.306;2023-06-10T01:04:22;10.90;;;8.40;;
63434;SDS011;68814;50.872;5.306;2023-06-10T01:14:57;10.82;;;7.95;;
63434;SDS011;68814;50.872;5.306;2023-06-10T01:17:24;12.52;;;8.60;;
63434;SDS011;68814;50.872;5.306;2023-06-10T01:19:56;9.70;;;8.48;;
63434;SDS011;68814;50.872;5.306;2023-06-10T01:22:25;14.60;;;8.77;;
63434;SDS011;68814;50.872;5.306;2023-06-10T01:24:57;14.10;;;8.85;;
63434;SDS011;68814;50.872;5.306;2023-06-10T01:27:24;12.18;;;8.45;;
63434;SDS011;68814;50.872;5.306;2023-06-10T01:30:04;12.32;;;8.73;;
63434;SDS011;68814;50.872;5.306;2023-06-10T01:32:45;10.90;;;8.38;;
63434;SDS011;68814;50.872;5.306;2023-06-10T01:35:15;11.43;;;8.70;;
63434;SDS011;68814;50.872;5.306;2023-06-10T01:37:42;12.48;;;8.30;;
63434;SDS011;68814;50.872;5.306;2023-06-10T01:40:11;9.45;;;8.20;;
63434;SDS011;68814;50.872;5.306;2023-06-10T01:42:38;13.23;;;8.85;;
63434;SDS011;68814;50.872;5.306;2023-06-10T01:45:04;9.63;;;8.63;;
63434;SDS011;68814;50.872;5.306;2023-06-10T01:47:30;12.13;;;9.65;;
63434;SDS011;68814;50.872;5.306;2023-06-10T01:49:56;11.75;;;9.23;;
63434;SDS011;68814;50.872;5.306;2023-06-10T01:52:22;11.95;;;9.55;;
63434;SDS011;68814;50.872;5.306;2023-06-10T01:54:47;14.38;;;9.23;;
63434;SDS011;68814;50.872;5.306;2023-06-10T01:57:13;9.88;;;8.48;;
63434;SDS011;68814;50.872;5.306;2023-06-10T01:59:38;11.50;;;9.80;;
63434;SDS011;68814;50.872;5.306;2023-06-10T02:02:04;11.43;;;9.27;;
63434;SDS011;68814;50.872;5.306;2023-06-10T02:04:30;11.88;;;9.45;;
63434;SDS011;68814;50.872;5.306;2023-06-10T02:06:56;14.02;;;9.32;;
63434;SDS011;68814;50.872;5.306;2023-06-10T02:09:22;15.48;;;9.20;;
63434;SDS011;68814;50.872;5.306;2023-06-10T02:11:48;13.63;;;10.25;;
63434;SDS011;68814;50.872;5.306;2023-06-10T02:14:14;13.93;;;9.55;;
63434;SDS011;68814;50.872;5.306;2023-06-10T02:16:40;19.25;;;9.27;;
63434;SDS011;68814;50.872;5.306;2023-06-10T02:19:05;13.70;;;9.60;;
63434;SDS011;68814;50.872;5.306;2023-06-10T02:21:32;12.27;;;9.65;;
63434;SDS011;68814;50.872;5.306;2023-06-10T02:23:59;11.18;;;9.45;;
63434;SDS011;68814;50.872;5.306;2023-06-10T02:26:25;12.07;;;8.98;;
63434;SDS011;68814;50.872;5.306;2023-06-10T02:28:51;12.40;;;9.70;;
63434;SDS011;68814;50.872;5.306;2023-06-10T02:31:17;13.52;;;9.25;;
63434;SDS011;68814;50.872;5.306;2023-06-10T02:33:43;11.20;;;9.13;;
63434;SDS011;68814;50.872;5.306;2023-06-10T02:36:09;12.38;;;9.43;;
63434;SDS011;68814;50.872;5.306;2023-06-10T02:38:38;12.65;;;9.27;;
63434;SDS011;68814;50.872;5.306;2023-06-10T02:41:05;12.90;;;10.07;;
63434;SDS011;68814;50.872;5.306;2023-06-10T02:43:30;14.68;;;9.55;;
63434;SDS011;68814;50.872;5.306;2023-06-10T02:45:56;13.15;;;10.40;;
63434;SDS011;68814;50.872;5.306;2023-06-10T02:48:23;12.40;;;9.90;;
63434;SDS011;68814;50.872;5.306;2023-06-10T02:50:49;14.50;;;10.43;;
63434;SDS011;68814;50.872;5.306;2023-06-10T02:53:15;14.00;;;10.30;;
63434;SDS011;68814;50.872;5.306;2023-06-10T02:55:41;12.40;;;9.80;;
63434;SDS011;68814;50.872;5.306;2023-06-10T02:58:07;13.57;;;10.15;;
63434;SDS011;68814;50.872;5.306;2023-06-10T03:00:33;11.07;;;9.95;;
63434;SDS011;68814;50.872;5.306;2023-06-10T03:02:59;14.02;;;10.70;;
63434;SDS011;68814;50.872;5.306;2023-06-10T03:05:28;12.05;;;9.98;;
63434;SDS011;68814;50.872;5.306;2023-06-10T03:07:54;15.55;;;9.90;;
63434;SDS011;68814;50.872;5.306;2023-06-10T03:10:20;14.32;;;10.60;;
63434;SDS011;68814;50.872;5.306;2023-06-10T03:12:46;11.43;;;10.15;;
63434;SDS011;68814;50.872;5.306;2023-06-10T03:15:11;13.82;;;10.88;;
63434;SDS011;68814;50.872;5.306;2023-06-10T03:17:38;14.05;;;10.07;;
63434;SDS011;68814;50.872;5.306;2023-06-10T03:20:03;12.43;;;9.77;;
63434;SDS011;68814;50.872;5.306;2023-06-10T03:22:30;22.90;;;11.82;;
63434;SDS011;68814;50.872;5.306;2023-06-10T03:24:56;16.20;;;10.98;;
63434;SDS011;68814;50.872;5.306;2023-06-10T03:27:22;13.05;;;10.13;;
63434;SDS011;68814;50.872;5.306;2023-06-10T03:29:48;14.82;;;10.85;;
63434;SDS011;68814;50.872;5.306;2023-06-10T03:32:14;14.63;;;11.00;;
63434;SDS011;68814;50.872;5.306;2023-06-10T03:34:40;18.27;;;11.05;;
63434;SDS011;68814;50.872;5.306;2023-06-10T03:37:05;14.20;;;10.65;;
63434;SDS011;68814;50.872;5.306;2023-06-10T03:39:32;16.27;;;11.50;;
63434;SDS011;68814;50.872;5.306;2023-06-10T03:41:57;12.60;;;10.25;;
63434;SDS011;68814;50.872;5.306;2023-06-10T03:44:24;13.55;;;10.75;;
63434;SDS011;68814;50.872;5.306;2023-06-10T03:46:51;16.27;;;10.35;;
63434;SDS011;68814;50.872;5.306;2023-06-10T03:49:17;15.27;;;11.65;;
63434;SDS011;68814;50.872;5.306;2023-06-10T03:51:42;15.32;;;10.65;;
63434;SDS011;68814;50.872;5.306;2023-06-10T03:54:08;14.95;;;11.38;;
63434;SDS011;68814;50.872;5.306;2023-06-10T03:56:34;14.27;;;11.07;;
63434;SDS011;68814;50.872;5.306;2023-06-10T03:59:00;12.88;;;10.90;;
63434;SDS011;68814;50.872;5.306;2023-06-10T04:01:26;13.77;;;10.63;;
63434;SDS011;68814;50.872;5.306;2023-06-10T04:03:52;13.48;;;10.20;;
63434;SDS011;68814;50.872;5.306;2023-06-10T04:06:19;16.50;;;11.70;;
63434;SDS011;68814;50.872;5.306;2023-06-10T04:08:45;12.82;;;11.48;;
63434;SDS011;68814;50.872;5.306;2023-06-10T04:11:11;15.07;;;11.13;;
63434;SDS011;68814;50.872;5.306;2023-06-10T04:13:36;15.38;;;11.80;;
63434;SDS011;68814;50.872;5.306;2023-06-10T04:16:02;15.15;;;11.07;;
63434;SDS011;68814;50.872;5.306;2023-06-10T04:18:28;13.23;;;11.48;;
63434;SDS011;68814;50.872;5.306;2023-06-10T04:20:54;13.38;;;11.23;;
63434;SDS011;68814;50.872;5.306;2023-06-10T04:23:20;13.80;;;10.95;;
63434;SDS011;68814;50.872;5.306;2023-06-10T04:25:46;13.00;;;11.48;;
63434;SDS011;68814;50.872;5.306;2023-06-10T04:28:11;15.80;;;11.25;;
63434;SDS011;68814;50.872;5.306;2023-06-10T04:30:37;16.77;;;11.90;;
63434;SDS011;68814;50.872;5.306;2023-06-10T04:33:03;15.27;;;11.18;;
63434;SDS011;68814;50.872;5.306;2023-06-10T04:35:31;15.73;;;11.52;;
63434;SDS011;68814;50.872;5.306;2023-06-10T04:37:57;16.15;;;11.32;;
63434;SDS011;68814;50.872;5.306;2023-06-10T04:40:23;16.88;;;11.50;;
63434;SDS011;68814;50.872;5.306;2023-06-10T04:42:49;14.07;;;11.90;;
63434;SDS011;68814;50.872;5.306;2023-06-10T04:45:14;13.13;;;11.00;;
63434;SDS011;68814;50.872;5.306;2023-06-10T04:47:40;13.27;;;11.68;;
63434;SDS011;68814;50.872;5.306;2023-06-10T04:50:05;18.08;;;11.48;;
63434;SDS011;68814;50.872;5.306;2023-06-10T04:52:31;12.00;;;10.70;;
63434;SDS011;68814;50.872;5.306;2023-06-10T04:54:58;12.48;;;10.55;;
63434;SDS011;68814;50.872;5.306;2023-06-10T04:57:24;15.25;;;10.82;;
63434;SDS011;68814;50.872;5.306;2023-06-10T04:59:49;16.45;;;10.63;;
63434;SDS011;68814;50.872;5.306;2023-06-10T05:02:15;16.42;;;11.40;;
63434;SDS011;68814;50.872;5.306;2023-06-10T05:04:41;13.57;;;10.00;;
63434;SDS011;68814;50.872;5.306;2023-06-10T05:07:06;15.88;;;11.30;;
63434;SDS011;68814;50.872;5.306;2023-06-10T05:09:32;16.23;;;11.25;;
63434;SDS011;68814;50.872;5.306;2023-06-10T05:11:58;14.82;;;10.65;;
63434;SDS011;68814;50.872;5.306;2023-06-10T05:14:23;14.85;;;10.60;;
63434;SDS011;68814;50.872;5.306;2023-06-10T05:16:49;13.02;;;10.10;;
63434;SDS011;68814;50.872;5.306;2023-06-10T05:19:15;16.08;;;10.70;;
63434;SDS011;68814;50.872;5.306;2023-06-10T05:21:44;12.40;;;10.00;;
63434;SDS011;68814;50.872;5.306;2023-06-10T05:24:10;12.98;;;9.80;;
63434;SDS011;68814;50.872;5.306;2023-06-10T05:26:36;12.25;;;9.77;;
63434;SDS011;68814;50.872;5.306;2023-06-10T05:29:03;13.27;;;10.10;;
63434;SDS011;68814;50.872;5.306;2023-06-10T05:31:29;15.10;;;10.00;;
63434;SDS011;68814;50.872;5.306;2023-06-10T05:33:55;13.20;;;9.88;;
63434;SDS011;68814;50.872;5.306;2023-06-10T05:36:21;12.20;;;10.02;;
63434;SDS011;68814;50.872;5.306;2023-06-10T05:38:46;15.73;;;10.57;;
63434;SDS011;68814;50.872;5.306;2023-06-10T05:41:12;15.05;;;10.65;;
63434;SDS011;68814;50.872;5.306;2023-06-10T05:43:38;13.70;;;9.88;;
63434;SDS011;68814;50.872;5.306;2023-06-10T05:46:03;12.00;;;9.80;;
63434;SDS011;68814;50.872;5.306;2023-06-10T05:48:29;12.20;;;9.38;;
63434;SDS011;68814;50.872;5.306;2023-06-10T05:50:55;13.68;;;9.60;;
63434;SDS011;68814;50.872;5.306;2023-06-10T05:53:20;14.50;;;9.90;;
63434;SDS011;68814;50.872;5.306;2023-06-10T05:55:46;9.93;;;8.85;;
63434;SDS011;68814;50.872;5.306;2023-06-10T05:58:14;18.73;;;9.98;;
63434;SDS011;68814;50.872;5.306;2023-06-10T06:00:40;11.95;;;8.52;;
63434;SDS011;68814;50.872;5.306;2023-06-10T06:03:09;9.95;;;8.95;;
63434;SDS011;68814;50.872;5.306;2023-06-10T06:05:35;14.88;;;9.27;;
63434;SDS011;68814;50.872;5.306;2023-06-10T06:08:06;14.25;;;9.23;;
63434;SDS011;68814;50.872;5.306;2023-06-10T06:10:34;10.55;;;8.75;;
63434;SDS011;68814;50.872;5.306;2023-06-10T06:13:00;10.60;;;8.30;;
63434;SDS011;68814;50.872;5.306;2023-06-10T06:15:26;15.20;;;8.35;;
63434;SDS011;68814;50.872;5.306;2023-06-10T06:17:52;14.65;;;9.23;;
63434;SDS011;68814;50.872;5.306;2023-06-10T06:20:21;11.48;;;9.10;;
63434;SDS011;68814;50.872;5.306;2023-06-10T06:22:48;11.35;;;8.30;;
63434;SDS011;68814;50.872;5.306;2023-06-10T06:25:14;13.75;;;8.60;;
63434;SDS011;68814;50.872;5.306;2023-06-10T06:27:40;11.43;;;8.60;;
63434;SDS011;68814;50.872;5.306;2023-06-10T06:30:05;11.50;;;8.43;;
63434;SDS011;68814;50.872;5.306;2023-06-10T06:32:32;9.95;;;8.55;;
63434;SDS011;68814;50.872;5.306;2023-06-10T06:34:57;10.35;;;8.60;;
63434;SDS011;68814;50.872;5.306;2023-06-10T06:37:24;13.88;;;8.68;;
63434;SDS011;68814;50.872;5.306;2023-06-10T06:39:53;10.77;;;8.27;;
63434;SDS011;68814;50.872;5.306;2023-06-10T06:42:19;17.70;;;7.65;;
63434;SDS011;68814;50.872;5.306;2023-06-10T06:44:46;16.70;;;8.38;;
63434;SDS011;68814;50.872;5.306;2023-06-10T06:47:12;12.77;;;8.60;;
63434;SDS011;68814;50.872;5.306;2023-06-10T06:49:38;10.32;;;7.32;;
63434;SDS011;68814;50.872;5.306;2023-06-10T06:52:04;12.05;;;7.72;;
63434;SDS011;68814;50.872;5.306;2023-06-10T06:54:30;9.07;;;7.00;;
63434;SDS011;68814;50.872;5.306;2023-06-10T06:56:56;12.07;;;7.38;;
63434;SDS011;68814;50.872;5.306;2023-06-10T06:59:22;10.45;;;7.30;;
63434;SDS011;68814;50.872;5.306;2023-06-10T07:01:47;9.98;;;7.60;;
63434;SDS011;68814;50.872;5.306;2023-06-10T07:04:14;10.57;;;7.35;;
63434;SDS011;68814;50.872;5.306;2023-06-10T07:06:40;8.60;;;7.00;;
63434;SDS011;68814;50.872;5.306;2023-06-10T07:09:07;14.13;;;7.55;;
63434;SDS011;68814;50.872;5.306;2023-06-10T07:11:34;9.82;;;6.45;;
63434;SDS011;68814;50.872;5.306;2023-06-10T07:13:59;7.97;;;6.72;;
63434;SDS011;68814;50.872;5.306;2023-06-10T07:16:25;7.75;;;6.45;;
63434;SDS011;68814;50.872;5.306;2023-06-10T07:18:52;13.80;;;7.20;;
63434;SDS011;68814;50.872;5.306;2023-06-10T07:21:18;8.07;;;6.32;;
63434;SDS011;68814;50.872;5.306;2023-06-10T07:23:43;11.95;;;6.80;;
63434;SDS011;68814;50.872;5.306;2023-06-10T07:26:10;16.02;;;7.72;;
63434;SDS011;68814;50.872;5.306;2023-06-10T07:28:38;10.00;;;6.93;;
63434;SDS011;68814;50.872;5.306;2023-06-10T07:31:07;7.05;;;6.35;;
63434;SDS011;68814;50.872;5.306;2023-06-10T07:33:33;8.70;;;6.80;;
63434;SDS011;68814;50.872;5.306;2023-06-10T07:35:58;11.43;;;7.13;;
63434;SDS011;68814;50.872;5.306;2023-06-10T07:38:25;11.48;;;6.57;;
63434;SDS011;68814;50.872;5.306;2023-06-10T07:40:51;9.13;;;6.47;;
63434;SDS011;68814;50.872;5.306;2023-06-10T07:43:17;9.68;;;7.38;;
63434;SDS011;68814;50.872;5.306;2023-06-10T07:45:42;12.73;;;6.93;;
63434;SDS011;68814;50.872;5.306;2023-06-10T07:48:08;11.85;;;7.35;;
63434;SDS011;68814;50.872;5.306;2023-06-10T07:50:34;10.15;;;6.60;;
63434;SDS011;68814;50.872;5.306;2023-06-10T07:53:00;9.07;;;6.78;;
63434;SDS011;68814;50.872;5.306;2023-06-10T07:55:26;7.38;;;6.43;;
63434;SDS011;68814;50.872;5.306;2023-06-10T07:57:52;11.13;;;6.50;;
63434;SDS011;68814;50.872;5.306;2023-06-10T08:00:18;8.38;;;6.55;;
63434;SDS011;68814;50.872;5.306;2023-06-10T08:02:44;6.82;;;6.13;;
63434;SDS011;68814;50.872;5.306;2023-06-10T08:05:10;8.73;;;5.97;;
63434;SDS011;68814;50.872;5.306;2023-06-10T08:07:36;10.10;;;6.45;;
63434;SDS011;68814;50.872;5.306;2023-06-10T08:10:02;6.93;;;6.20;;
63434;SDS011;68814;50.872;5.306;2023-06-10T08:12:29;8.20;;;6.30;;
63434;SDS011;68814;50.872;5.306;2023-06-10T08:14:54;8.10;;;6.25;;
63434;SDS011;68814;50.872;5.306;2023-06-10T08:17:20;8.70;;;5.75;;
63434;SDS011;68814;50.872;5.306;2023-06-10T08:19:46;8.65;;;5.75;;
63434;SDS011;68814;50.872;5.306;2023-06-10T08:22:12;6.70;;;6.05;;
63434;SDS011;68814;50.872;5.306;2023-06-10T08:24:38;9.82;;;6.88;;
63434;SDS011;68814;50.872;5.306;2023-06-10T08:27:03;6.40;;;5.70;;
63434;SDS011;68814;50.872;5.306;2023-06-10T08:29:30;7.15;;;5.55;;
63434;SDS011;68814;50.872;5.306;2023-06-10T08:31:56;6.70;;;6.07;;
63434;SDS011;68814;50.872;5.306;2023-06-10T08:34:22;9.48;;;5.95;;
63434;SDS011;68814;50.872;5.306;2023-06-10T08:36:48;13.80;;;6.40;;
63434;SDS011;68814;50.872;5.306;2023-06-10T08:39:18;10.88;;;6.28;;
63434;SDS011;68814;50.872;5.306;2023-06-10T08:41:46;6.85;;;5.93;;
63434;SDS011;68814;50.872;5.306;2023-06-10T08:44:37;9.63;;;6.10;;
63434;SDS011;68814;50.872;5.306;2023-06-10T08:47:06;11.50;;;5.88;;
63434;SDS011;68814;50.872;5.306;2023-06-10T08:49:38;8.48;;;5.20;;
63434;SDS011;68814;50.872;5.306;2023-06-10T08:52:07;8.25;;;5.38;;
63434;SDS011;68814;50.872;5.306;2023-06-10T08:54:40;8.07;;;5.90;;
63434;SDS011;68814;50.872;5.306;2023-06-10T08:57:09;7.20;;;5.82;;
63434;SDS011;68814;50.872;5.306;2023-06-10T08:59:36;8.18;;;5.60;;
63434;SDS011;68814;50.872;5.306;2023-06-10T09:02:02;8.82;;;6.10;;
63434;SDS011;68814;50.872;5.306;2023-06-10T09:04:29;11.32;;;5.88;;
63434;SDS011;68814;50.872;5.306;2023-06-10T09:06:55;7.78;;;6.10;;
63434;SDS011;68814;50.872;5.306;2023-06-10T09:09:21;9.55;;;6.05;;
63434;SDS011;68814;50.872;5.306;2023-06-10T09:11:48;8.52;;;6.13;;
63434;SDS011;68814;50.872;5.306;2023-06-10T09:14:15;8.13;;;5.63;;
63434;SDS011;68814;50.872;5.306;2023-06-10T09:16:41;7.07;;;5.53;;
63434;SDS011;68814;50.872;5.306;2023-06-10T09:19:07;5.85;;;5.25;;
63434;SDS011;68814;50.872;5.306;2023-06-10T09:21:33;7.72;;;5.65;;
63434;SDS011;68814;50.872;5.306;2023-06-10T09:24:00;11.50;;;5.65;;
63434;SDS011;68814;50.872;5.306;2023-06-10T09:26:29;7.50;;;5.25;;
63434;SDS011;68814;50.872;5.306;2023-06-10T09:29:05;7.45;;;5.45;;
63434;SDS011;68814;50.872;5.306;2023-06-10T09:31:36;6.40;;;5.63;;
63434;SDS011;68814;50.872;5.306;2023-06-10T09:34:12;6.65;;;5.40;;
63434;SDS011;68814;50.872;5.306;2023-06-10T09:36:40;9.00;;;5.35;;
63434;SDS011;68814;50.872;5.306;2023-06-10T09:39:16;10.38;;;5.70;;
63434;SDS011;68814;50.872;5.306;2023-06-10T09:41:42;8.57;;;5.22;;
63434;SDS011;68814;50.872;5.306;2023-06-10T09:44:16;9.07;;;5.22;;
63434;SDS011;68814;50.872;5.306;2023-06-10T09:46:48;7.50;;;4.97;;
63434;SDS011;68814;50.872;5.306;2023-06-10T09:49:19;5.65;;;5.15;;
63434;SDS011;68814;50.872;5.306;2023-06-10T09:51:52;5.55;;;4.50;;
63434;SDS011;68814;50.872;5.306;2023-06-10T09:54:19;8.77;;;4.78;;
63434;SDS011;68814;50.872;5.306;2023-06-10T09:56:49;7.20;;;4.90;;
63434;SDS011;68814;50.872;5.306;2023-06-10T09:59:30;5.30;;;4.55;;
63434;SDS011;68814;50.872;5.306;2023-06-10T10:01:59;8.48;;;4.72;;
63434;SDS011;68814;50.872;5.306;2023-06-10T10:04:26;7.53;;;4.88;;
63434;SDS011;68814;50.872;5.306;2023-06-10T10:06:52;9.68;;;4.82;;
63434;SDS011;68814;50.872;5.306;2023-06-10T10:09:17;5.03;;;4.40;;
63434;SDS011;68814;50.872;5.306;2023-06-10T10:11:43;11.70;;;4.57;;
63434;SDS011;68814;50.872;5.306;2023-06-10T10:14:09;6.80;;;4.28;;
63434;SDS011;68814;50.872;5.306;2023-06-10T10:16:36;9.30;;;4.72;;
63434;SDS011;68814;50.872;5.306;2023-06-10T10:19:40;5.65;;;4.20;;
63434;SDS011;68814;50.872;5.306;2023-06-10T10:22:04;9.13;;;4.47;;
63434;SDS011;68814;50.872;5.306;2023-06-10T10:24:36;8.90;;;4.78;;
63434;SDS011;68814;50.872;5.306;2023-06-10T10:27:07;9.35;;;4.82;;
63434;SDS011;68814;50.872;5.306;2023-06-10T10:29:42;8.00;;;4.63;;
63434;SDS011;68814;50.872;5.306;2023-06-10T10:32:16;5.55;;;4.65;;
63434;SDS011;68814;50.872;5.306;2023-06-10T10:34:50;5.72;;;4.18;;
63434;SDS011;68814;50.872;5.306;2023-06-10T10:37:24;6.22;;;4.25;;
63434;SDS011;68814;50.872;5.306;2023-06-10T10:39:50;6.80;;;4.72;;
63434;SDS011;68814;50.872;5.306;2023-06-10T10:42:17;8.55;;;4.25;;
63434;SDS011;68814;50.872;5.306;2023-06-10T10:44:43;4.90;;;4.15;;
63434;SDS011;68814;50.872;5.306;2023-06-10T10:47:09;12.75;;;4.15;;
63434;SDS011;68814;50.872;5.306;2023-06-10T10:49:37;6.70;;;4.10;;
63434;SDS011;68814;50.872;5.306;2023-06-10T10:52:03;4.60;;;3.95;;
63434;SDS011;68814;50.872;5.306;2023-06-10T10:54:35;8.13;;;4.47;;
63434;SDS011;68814;50.872;5.306;2023-06-10T10:57:20;8.07;;;4.00;;
63434;SDS011;68814;50.872;5.306;2023-06-10T11:02:37;5.13;;;4.55;;
63434;SDS011;68814;50.872;5.306;2023-06-10T11:05:08;7.03;;;4.45;;
63434;SDS011;68814;50.872;5.306;2023-06-10T11:07:35;19.88;;;5.78;;
63434;SDS011;68814;50.872;5.306;2023-06-10T11:10:08;8.90;;;4.03;;
63434;SDS011;68814;50.872;5.306;2023-06-10T11:15:11;9.52;;;4.00;;
63434;SDS011;68814;50.872;5.306;2023-06-10T11:17:37;6.95;;;4.63;;
63434;SDS011;68814;50.872;5.306;2023-06-10T11:20:03;5.70;;;4.13;;
63434;SDS011;68814;50.872;5.306;2023-06-10T11:22:30;7.50;;;4.10;;
63434;SDS011;68814;50.872;5.306;2023-06-10T11:24:56;5.97;;;4.28;;
63434;SDS011;68814;50.872;5.306;2023-06-10T11:27:24;5.30;;;4.00;;
63434;SDS011;68814;50.872;5.306;2023-06-10T11:29:57;8.85;;;3.80;;
63434;SDS011;68814;50.872;5.306;2023-06-10T11:32:29;5.05;;;4.18;;
63434;SDS011;68814;50.872;5.306;2023-06-10T11:34:56;10.80;;;3.90;;
63434;SDS011;68814;50.872;5.306;2023-06-10T11:37:22;6.07;;;3.53;;
63434;SDS011;68814;50.872;5.306;2023-06-10T11:39:52;9.82;;;3.88;;
63434;SDS011;68814;50.872;5.306;2023-06-10T11:42:23;7.55;;;3.83;;
63434;SDS011;68814;50.872;5.306;2023-06-10T11:44:50;4.72;;;4.22;;
63434;SDS011;68814;50.872;5.306;2023-06-10T11:47:17;11.02;;;4.68;;
63434;SDS011;68814;50.872;5.306;2023-06-10T11:49:43;8.98;;;4.38;;
63434;SDS011;68814;50.872;5.306;2023-06-10T11:52:09;6.22;;;4.15;;
63434;SDS011;68814;50.872;5.306;2023-06-10T11:54:36;4.93;;;3.45;;
63434;SDS011;68814;50.872;5.306;2023-06-10T11:57:02;4.47;;;3.80;;
63434;SDS011;68814;50.872;5.306;2023-06-10T11:59:28;5.80;;;4.00;;
63434;SDS011;68814;50.872;5.306;2023-06-10T12:01:55;7.00;;;3.85;;
63434;SDS011;68814;50.872;5.306;2023-06-10T12:04:21;5.28;;;3.65;;
63434;SDS011;68814;50.872;5.306;2023-06-10T12:06:47;5.90;;;3.80;;
63434;SDS011;68814;50.872;5.306;2023-06-10T12:09:22;7.03;;;4.10;;
63434;SDS011;68814;50.872;5.306;2023-06-10T12:11:50;5.20;;;4.15;;
63434;SDS011;68814;50.872;5.306;2023-06-10T12:20:05;8.15;;;4.65;;
63434;SDS011;68814;50.872;5.306;2023-06-10T12:22:36;7.18;;;3.92;;
63434;SDS011;68814;50.872;5.306;2023-06-10T12:25:07;5.10;;;4.18;;
63434;SDS011;68814;50.872;5.306;2023-06-10T12:27:34;6.60;;;4.00;;
63434;SDS011;68814;50.872;5.306;2023-06-10T12:30:01;10.48;;;3.90;;
63434;SDS011;68814;50.872;5.306;2023-06-10T12:35:04;4.15;;;3.72;;
63434;SDS011;68814;50.872;5.306;2023-06-10T12:37:30;4.45;;;3.88;;
63434;SDS011;68814;50.872;5.306;2023-06-10T12:39:59;5.20;;;3.78;;
63434;SDS011;68814;50.872;5.306;2023-06-10T12:42:26;8.60;;;4.18;;
63434;SDS011;68814;50.872;5.306;2023-06-10T12:44:54;4.75;;;3.20;;
63434;SDS011;68814;50.872;5.306;2023-06-10T12:47:28;5.47;;;3.88;;
63434;SDS011;68814;50.872;5.306;2023-06-10T12:50:04;9.17;;;3.60;;
63434;SDS011;68814;50.872;5.306;2023-06-10T12:52:30;8.15;;;3.60;;
63434;SDS011;68814;50.872;5.306;2023-06-10T12:54:57;6.30;;;4.30;;
63434;SDS011;68814;50.872;5.306;2023-06-10T12:57:23;5.85;;;3.97;;
63434;SDS011;68814;50.872;5.306;2023-06-10T12:59:49;7.60;;;3.85;;
63434;SDS011;68814;50.872;5.306;2023-06-10T13:02:17;9.85;;;4.20;;
63434;SDS011;68814;50.872;5.306;2023-06-10T13:04:48;4.93;;;3.83;;
63434;SDS011;68814;50.872;5.306;2023-06-10T13:07:15;6.03;;;3.90;;
63434;SDS011;68814;50.872;5.306;2023-06-10T13:09:41;6.40;;;4.03;;
63434;SDS011;68814;50.872;5.306;2023-06-10T13:12:07;5.50;;;4.13;;
63434;SDS011;68814;50.872;5.306;2023-06-10T13:14:33;5.93;;;3.53;;
63434;SDS011;68814;50.872;5.306;2023-06-10T13:16:59;6.43;;;4.10;;
63434;SDS011;68814;50.872;5.306;2023-06-10T13:19:24;4.90;;;3.55;;
63434;SDS011;68814;50.872;5.306;2023-06-10T13:21:51;6.20;;;3.55;;
63434;SDS011;68814;50.872;5.306;2023-06-10T13:24:17;4.72;;;3.65;;
63434;SDS011;68814;50.872;5.306;2023-06-10T13:26:42;4.20;;;3.80;;
63434;SDS011;68814;50.872;5.306;2023-06-10T13:29:08;7.85;;;4.03;;
63434;SDS011;68814;50.872;5.306;2023-06-10T13:31:38;5.75;;;3.70;;
63434;SDS011;68814;50.872;5.306;2023-06-10T13:34:05;5.25;;;3.78;;
63434;SDS011;68814;50.872;5.306;2023-06-10T13:36:31;3.95;;;3.55;;
63434;SDS011;68814;50.872;5.306;2023-06-10T13:38:57;3.85;;;3.47;;
63434;SDS011;68814;50.872;5.306;2023-06-10T13:41:22;4.70;;;3.70;;
63434;SDS011;68814;50.872;5.306;2023-06-10T13:43:48;4.55;;;3.45;;
63434;SDS011;68814;50.872;5.306;2023-06-10T13:46:14;3.60;;;3.30;;
63434;SDS011;68814;50.872;5.306;2023-06-10T13:48:39;5.47;;;3.70;;
63434;SDS011;68814;50.872;5.306;2023-06-10T13:51:05;5.25;;;3.88;;
63434;SDS011;68814;50.872;5.306;2023-06-10T13:53:31;4.95;;;3.28;;
63434;SDS011;68814;50.872;5.306;2023-06-10T13:55:57;11.30;;;3.53;;
63434;SDS011;68814;50.872;5.306;2023-06-10T13:58:23;6.93;;;3.20;;
63434;SDS011;68814;50.872;5.306;2023-06-10T14:00:48;4.00;;;3.60;;
63434;SDS011;68814;50.872;5.306;2023-06-10T14:03:14;6.28;;;3.88;;
63434;SDS011;68814;50.872;5.306;2023-06-10T14:05:40;4.57;;;3.15;;
63434;SDS011;68814;50.872;5.306;2023-06-10T14:08:05;4.05;;;3.58;;
63434;SDS011;68814;50.872;5.306;2023-06-10T14:10:31;4.72;;;3.22;;
63434;SDS011;68814;50.872;5.306;2023-06-10T14:12:56;3.47;;;3.17;;
63434;SDS011;68814;50.872;5.306;2023-06-10T14:15:22;7.00;;;3.20;;
63434;SDS011;68814;50.872;5.306;2023-06-10T14:17:48;4.68;;;3.03;;
63434;SDS011;68814;50.872;5.306;2023-06-10T14:20:13;9.93;;;3.47;;
63434;SDS011;68814;50.872;5.306;2023-06-10T14:22:39;6.22;;;3.13;;
63434;SDS011;68814;50.872;5.306;2023-06-10T14:25:05;3.85;;;3.10;;
63434;SDS011;68814;50.872;5.306;2023-06-10T14:27:31;5.07;;;3.10;;
63434;SDS011;68814;50.872;5.306;2023-06-10T14:29:57;9.10;;;3.20;;
63434;SDS011;68814;50.872;5.306;2023-06-10T14:32:22;5.05;;;3.15;;
63434;SDS011;68814;50.872;5.306;2023-06-10T14:34:48;4.85;;;3.40;;
63434;SDS011;68814;50.872;5.306;2023-06-10T14:37:13;5.10;;;3.08;;
63434;SDS011;68814;50.872;5.306;2023-06-10T14:39:39;4.63;;;3.30;;
63434;SDS011;68814;50.872;5.306;2023-06-10T14:42:05;5.72;;;3.28;;
63434;SDS011;68814;50.872;5.306;2023-06-10T14:44:31;4.53;;;3.65;;
63434;SDS011;68814;50.872;5.306;2023-06-10T14:46:56;7.28;;;3.30;;
63434;SDS011;68814;50.872;5.306;2023-06-10T14:49:22;7.25;;;3.38;;
63434;SDS011;68814;50.872;5.306;2023-06-10T14:51:48;4.45;;;3.15;;
63434;SDS011;68814;50.872;5.306;2023-06-10T14:54:15;5.00;;;3.45;;
63434;SDS011;68814;50.872;5.306;2023-06-10T14:56:40;3.88;;;3.30;;
63434;SDS011;68814;50.872;5.306;2023-06-10T14:59:06;5.25;;;3.08;;